Time;durP1;ratioP1;P1;durP2;ratioP2;P2;SDS_P1;SDS_P2;PMS_P1;PMS_P2;Temp;Humidity;BMP_temperature;BMP_pressure;BME280_temperature;BME280_humidity;BME280_pressure;Samples;Min_cycle;Max_cycle;Signal;HPM_P1;HPM_P2
2022/08/09 00:01:51;;;;;;;6.95;6.25;;;;;;;19.93;98.71;100341.45;1687018;82;21086;-58
2022/08/09 00:04:19;;;;;;;8.48;6.35;;;;;;;19.95;99.12;100340.02;1687174;83;21594;-58
2022/08/09 00:06:45;;;;;;;;;;;;;;;19.94;99.21;100335.63;1742494;80;21499;-58
2022/08/09 00:09:13;;;;;;;10.98;6.87;;;;;;;20.03;99.13;100337.15;1742544;81;20414;-58
2022/08/09 00:11:39;;;;;;;13.90;5.75;;;;;;;20.05;98.78;100333.53;1734184;80;21627;-58
2022/08/09 00:14:06;;;;;;;9.08;6.10;;;;;;;20.03;98.59;100330.48;1745689;80;21700;-58
2022/08/09 00:16:33;;;;;;;7.57;6.87;;;;;;;20.05;98.30;100333.05;1686802;83;21517;-58
2022/08/09 00:19:00;;;;;;;7.03;6.33;;;;;;;20.00;98.60;100337.39;1707472;82;21782;-58
2022/08/09 00:21:26;;;;;;;6.70;6.08;;;;;;;19.97;98.67;100333.59;1709693;82;21540;-58
2022/08/09 00:23:54;;;;;;;7.22;6.37;;;;;;;19.94;99.06;100338.29;1709517;82;21478;-58
2022/08/09 00:26:21;;;;;;;9.20;6.03;;;;;;;19.98;99.50;100335.77;1700177;83;21544;-60
2022/08/09 00:28:48;;;;;;;6.83;6.20;;;;;;;20.00;99.57;100337.39;1739088;79;21543;-60
2022/08/09 00:31:14;;;;;;;8.20;5.58;;;;;;;20.01;99.56;100339.08;1733330;80;21816;-59
2022/08/09 00:33:42;;;;;;;8.60;5.58;;;;;;;19.99;100.00;100338.34;1729900;80;21630;-59
2022/08/09 00:36:10;;;;;;;8.55;5.85;;;;;;;20.00;100.00;100336.05;1729254;80;21668;-59
2022/08/09 00:38:38;;;;;;;;;;;;;;;20.05;99.99;100337.05;1685682;82;21446;-59
2022/08/09 00:41:05;;;;;;;5.85;5.45;;;;;;;20.01;100.00;100333.73;1673035;83;20432;-59
2022/08/09 00:43:35;;;;;;;;;;;;;;;19.99;100.00;100329.00;1666738;82;22117;-59
2022/08/09 00:46:00;;;;;;;8.53;6.35;;;;;;;20.02;100.00;100333.25;1665275;82;20461;-59
2022/08/09 00:48:27;;;;;;;9.03;6.60;;;;;;;19.92;100.00;100335.73;1733024;80;21428;-59
2022/08/09 00:50:54;;;;;;;6.55;6.05;;;;;;;19.84;100.00;100328.27;1738892;80;21472;-59
2022/08/09 00:53:21;;;;;;;6.90;6.30;;;;;;;19.82;100.00;100326.68;1727238;80;21080;-59
2022/08/09 00:55:47;;;;;;;6.43;5.83;;;;;;;19.85;100.00;100333.11;1736296;80;21796;-59
2022/08/09 00:58:14;;;;;;;9.73;5.80;;;;;;;19.87;100.00;100338.34;1736172;80;21590;-59
2022/08/09 01:00:41;;;;;;;8.58;6.00;;;;;;;19.99;100.00;100336.16;1728739;80;21501;-59
2022/08/09 01:03:28;;;;;;;5.90;5.30;;;;;;;19.99;100.00;100336.16;1724333;81;21449;-59
2022/08/09 01:06:42;;;;;;;7.28;6.10;;;;;;;19.99;99.91;100336.16;1724565;81;20986;-60
2022/08/09 01:09:36;;;;;;;6.33;5.83;;;;;;;20.01;99.47;100331.07;1726057;80;21821;-59
2022/08/09 01:12:19;;;;;;;8.23;5.80;;;;;;;20.06;98.17;100333.89;1736346;80;20995;-60
2022/08/09 01:15:09;;;;;;;8.33;5.72;;;;;;;20.06;98.17;100333.89;1727436;81;21519;-59
2022/08/09 01:17:56;;;;;;;6.47;5.87;;;;;;;20.04;99.45;100333.98;1691707;82;21513;-59
2022/08/09 01:20:35;;;;;;;;;;;;;;;20.09;100.00;100335.02;1731568;81;21569;-60
2022/08/09 01:23:46;;;;;;;6.22;5.58;;;;;;;20.10;100.00;100333.58;1741483;80;21754;-60
2022/08/09 01:27:04;;;;;;;6.20;5.60;;;;;;;20.06;100.00;100329.88;1730645;81;21560;-59
2022/08/09 01:29:35;;;;;;;6.40;5.62;;;;;;;20.07;100.00;100327.59;1725927;81;21044;-59
2022/08/09 01:32:03;;;;;;;6.85;5.58;;;;;;;20.07;100.00;100327.59;1732324;80;21471;-60
2022/08/09 01:34:31;;;;;;;6.30;5.72;;;;;;;20.03;100.00;100322.95;1752319;80;21555;-60
2022/08/09 01:36:58;;;;;;;7.53;5.67;;;;;;;20.03;100.00;100322.95;1723108;81;21856;-61
2022/08/09 01:39:25;;;;;;;8.50;5.70;;;;;;;20.03;100.00;100325.14;1754033;80;21554;-60
2022/08/09 01:41:53;;;;;;;7.47;5.90;;;;;;;20.11;100.00;100327.26;1750981;80;21482;-60
2022/08/09 01:44:19;;;;;;;5.95;5.15;;;;;;;20.11;100.00;100327.26;1745946;80;21499;-59
2022/08/09 01:46:46;;;;;;;6.03;5.40;;;;;;;20.12;100.00;100329.47;1753190;80;21661;-59
2022/08/09 01:49:16;;;;;;;6.35;5.35;;;;;;;20.10;100.00;100336.70;1739795;80;21836;-60
2022/08/09 01:51:46;;;;;;;8.50;5.58;;;;;;;20.11;100.00;100339.76;1743484;80;21479;-60
2022/08/09 01:54:13;;;;;;;7.42;5.67;;;;;;;20.11;100.00;100344.61;1733452;81;20994;-60
2022/08/09 01:56:43;;;;;;;9.80;5.47;;;;;;;20.12;100.00;100346.81;1742772;80;21497;-59
2022/08/09 01:59:13;;;;;;;10.48;6.25;;;;;;;20.15;100.00;100346.09;1737106;80;21570;-60
2022/08/09 02:01:40;;;;;;;7.95;5.53;;;;;;;20.15;100.00;100346.09;1740612;80;21491;-59
2022/08/09 02:04:07;;;;;;;5.47;5.08;;;;;;;20.13;100.00;100344.50;1666729;84;21463;-60
2022/08/09 02:09:19;;;;;;;5.50;5.00;;;;;;;20.11;100.00;100349.10;1710879;82;21504;-59
2022/08/09 02:11:47;;;;;;;8.08;5.05;;;;;;;20.12;100.00;100344.15;1705535;82;20976;-60
2022/08/09 02:14:15;;;;;;;6.47;4.92;;;;;;;20.09;100.00;100337.20;1718185;82;21825;-59
2022/08/09 02:16:41;;;;;;;5.75;5.17;;;;;;;20.09;100.00;100327.84;1716741;82;21506;-59
2022/08/09 02:19:08;;;;;;;6.03;4.90;;;;;;;20.08;100.00;100329.29;1703032;82;20962;-60
2022/08/09 02:21:40;;;;;;;6.22;5.00;;;;;;;20.08;100.00;100331.95;1699469;82;21072;-60
2022/08/09 02:24:10;;;;;;;10.72;5.47;;;;;;;20.13;100.00;100332.48;1704922;82;21479;-60
2022/08/09 02:26:37;;;;;;;8.78;4.90;;;;;;;20.06;100.00;100324.09;1683754;83;21790;-60
2022/08/09 02:29:15;;;;;;;10.00;4.70;;;;;;;20.06;100.00;100324.09;1682587;84;21666;-60
2022/08/09 02:31:43;;;;;;;8.73;4.85;;;;;;;19.99;100.00;100329.00;1675985;83;28725;-59
2022/08/09 02:34:16;;;;;;;6.08;4.83;;;;;;;20.01;100.00;100331.56;1681078;84;21511;-60
2022/08/09 02:36:47;;;;;;;10.78;5.83;;;;;;;19.90;100.00;100339.48;1676478;83;21784;-59
2022/08/09 02:39:18;;;;;;;7.33;4.83;;;;;;;19.90;100.00;100339.48;1701862;82;21787;-59
2022/08/09 02:42:07;;;;;;;7.03;5.42;;;;;;;19.90;100.00;100342.14;1708066;82;20962;-59
2022/08/09 02:44:36;;;;;;;12.23;4.75;;;;;;;19.98;100.00;100345.95;1700038;83;21522;-59
2022/08/09 02:47:06;;;;;;;9.20;4.72;;;;;;;20.00;100.00;100348.52;1696235;83;21444;-60
2022/08/09 02:49:37;;;;;;;5.45;4.60;;;;;;;20.00;100.00;100348.52;1697168;83;21587;-60
2022/08/09 02:52:04;;;;;;;8.00;4.97;;;;;;;20.01;100.00;100344.91;1698822;82;21804;-60
2022/08/09 02:54:30;;;;;;;5.83;4.35;;;;;;;20.01;100.00;100344.91;1695350;83;21539;-59
2022/08/09 02:56:57;;;;;;;8.43;3.98;;;;;;;19.96;100.00;100350.55;1691850;82;21574;-59
2022/08/09 02:59:24;;;;;;;6.30;4.17;;;;;;;19.98;100.00;100353.12;1696362;83;21657;-60
2022/08/09 03:01:50;;;;;;;4.70;4.17;;;;;;;19.95;100.00;100351.53;1692846;83;21081;-60
2022/08/09 03:04:17;;;;;;;4.97;4.45;;;;;;;19.95;100.00;100351.53;1658090;84;21808;-60
2022/08/09 03:06:44;;;;;;;4.65;4.35;;;;;;;19.93;100.00;100345.45;1677624;83;21482;-60
2022/08/09 03:09:11;;;;;;;4.43;4.13;;;;;;;20.03;100.00;100346.98;1716227;82;21564;-60
2022/08/09 03:11:38;;;;;;;5.72;3.72;;;;;;;20.14;100.00;100351.56;1709542;82;21510;-60
2022/08/09 03:14:04;;;;;;;8.50;4.00;;;;;;;20.15;100.00;100344.75;1685815;84;21448;-61
2022/08/09 03:16:32;;;;;;;5.92;3.83;;;;;;;20.19;100.00;100336.92;1679142;83;21827;-60
2022/08/09 03:19:00;;;;;;;4.22;3.92;;;;;;;20.26;100.00;100337.80;1705833;82;21054;-60
2022/08/09 03:21:27;;;;;;;;;;;;;;;20.23;100.00;100344.23;1696292;83;21591;-60
2022/08/09 03:23:53;;;;;;;3.95;3.65;;;;;;;20.29;100.00;100338.44;1678879;84;20286;-60
2022/08/09 03:26:20;;;;;;;4.22;3.92;;;;;;;20.29;100.00;100338.44;1682478;83;21030;-60
2022/08/09 03:28:48;;;;;;;6.15;4.20;;;;;;;20.36;100.00;100346.84;1689678;84;21903;-60
2022/08/09 03:31:15;;;;;;;4.12;3.75;;;;;;;20.45;100.00;100350.67;1710276;82;21356;-60
2022/08/09 03:33:41;;;;;;;6.03;4.15;;;;;;;20.52;100.00;100357.28;1706496;82;21573;-60
2022/08/09 03:36:09;;;;;;;5.80;3.77;;;;;;;20.64;100.00;100356.39;1687471;82;21459;-60
2022/08/09 03:38:36;;;;;;;;;;;;;;;20.71;100.00;100350.97;1716127;82;21408;-59
2022/08/09 03:41:03;;;;;;;5.10;3.90;;;;;;;20.80;100.00;100356.97;1739070;80;22095;-60
2022/08/09 03:43:30;;;;;;;3.67;3.37;;;;;;;20.87;100.00;100353.84;1728066;81;21591;-59
2022/08/09 03:45:57;;;;;;;3.42;3.22;;;;;;;20.92;100.00;100350.34;1730291;82;20973;-60
2022/08/09 03:48:24;;;;;;;3.50;2.90;;;;;;;21.00;100.00;100352.82;1722451;80;21488;-61
2022/08/09 03:50:52;;;;;;;3.20;3.00;;;;;;;21.03;100.00;100344.20;1720398;81;21546;-59
2022/08/09 03:53:19;;;;;;;3.33;2.98;;;;;;;21.14;100.00;100350.92;1730987;80;21750;-60
2022/08/09 03:55:47;;;;;;;4.87;3.25;;;;;;;21.22;99.55;100337.81;1737215;80;21523;-60
2022/08/09 03:58:14;;;;;;;4.10;3.40;;;;;;;21.27;99.20;100342.33;1743197;80;21456;-59
2022/08/09 04:00:41;;;;;;;4.62;3.17;;;;;;;21.15;99.52;100352.61;1728066;80;21570;-59
2022/08/09 04:03:07;;;;;;;2.90;2.65;;;;;;;21.09;100.00;100354.42;1686521;84;21521;-60
2022/08/09 04:05:34;;;;;;;3.25;2.95;;;;;;;21.07;100.00;100354.53;1709380;81;21906;-60
2022/08/09 04:08:01;;;;;;;2.85;2.65;;;;;;;21.08;100.00;100351.36;1732329;81;21582;-60
2022/08/09 04:10:28;;;;;;;4.53;2.90;;;;;;;21.07;100.00;100347.84;1729663;81;21524;-60
2022/08/09 04:12:54;;;;;;;3.22;3.00;;;;;;;21.09;100.00;100342.39;1724945;81;21478;-59
2022/08/09 04:15:22;;;;;;;2.90;2.70;;;;;;;21.00;100.00;100349.27;1729672;80;21080;-60
2022/08/09 04:17:49;;;;;;;;;;;;;;;21.00;100.00;100351.95;1736701;80;21729;-60
2022/08/09 04:20:16;;;;;;;2.90;2.70;;;;;;;20.99;100.00;100352.44;1733293;80;20508;-59
2022/08/09 04:22:44;;;;;;;8.15;2.90;;;;;;;20.97;100.00;100352.20;1727148;81;21560;-60
2022/08/09 04:25:11;;;;;;;2.85;2.60;;;;;;;21.00;100.00;100357.29;1729379;80;21511;-60
2022/08/09 04:27:41;;;;;;;4.55;2.55;;;;;;;21.04;100.00;100348.56;1729003;80;21477;-60
2022/08/09 04:30:14;;;;;;;4.55;2.60;;;;;;;21.06;100.00;100343.95;1720557;81;21873;-60
2022/08/09 04:32:41;;;;;;;2.90;2.70;;;;;;;21.11;100.00;100335.95;1687331;83;21021;-60
2022/08/09 04:35:09;;;;;;;2.77;2.37;;;;;;;21.04;100.00;100333.86;1684048;83;21466;-59
2022/08/09 04:37:37;;;;;;;2.85;2.65;;;;;;;21.21;99.85;100328.10;1705157;82;21453;-61
2022/08/09 04:40:05;;;;;;;3.95;1.90;;;;;;;21.21;99.85;100328.10;1746551;80;21610;-61
2022/08/09 04:42:32;;;;;;;2.90;2.10;;;;;;;21.29;99.57;100328.36;1732891;80;21754;-60
2022/08/09 04:44:59;;;;;;;4.35;2.27;;;;;;;21.45;99.32;100339.23;1728190;80;21499;-61
2022/08/09 04:47:26;;;;;;;3.40;2.23;;;;;;;21.51;99.27;100332.94;1739490;80;21523;-61
2022/08/09 04:49:54;;;;;;;1.92;1.82;;;;;;;21.51;99.27;100332.94;1741060;80;22223;-62
2022/08/09 04:52:23;;;;;;;2.52;2.17;;;;;;;21.63;98.08;100331.62;1738734;80;21545;-61
2022/08/09 04:54:52;;;;;;;2.25;1.92;;;;;;;21.62;97.64;100331.23;1740046;80;21783;-61
2022/08/09 04:57:20;;;;;;;2.02;1.70;;;;;;;21.67;97.74;100328.56;1732671;80;21598;-62
2022/08/09 04:59:46;;;;;;;2.05;1.80;;;;;;;21.76;97.31;100327.00;1738370;80;20994;-61
2022/08/09 05:02:13;;;;;;;1.40;1.30;;;;;;;21.88;96.42;100325.17;1698690;82;21432;-62
2022/08/09 05:04:41;;;;;;;4.03;1.70;;;;;;;22.00;94.62;100317.98;1694126;83;21088;-62
2022/08/09 05:07:08;;;;;;;1.80;1.30;;;;;;;22.08;93.04;100308.37;1694970;83;21813;-62
2022/08/09 05:09:35;;;;;;;1.80;1.70;;;;;;;22.16;92.01;100309.93;1695452;83;21652;-61
2022/08/09 05:12:01;;;;;;;1.40;1.30;;;;;;;22.20;91.50;100299.82;1699342;82;21458;-62
2022/08/09 05:14:30;;;;;;;1.85;1.30;;;;;;;22.23;90.58;100292.05;1704043;82;21499;-62
2022/08/09 05:16:58;;;;;;;2.62;1.32;;;;;;;22.19;90.02;100300.81;1741980;80;21462;-61
2022/08/09 05:19:28;;;;;;;1.67;1.17;;;;;;;22.18;89.02;100299.59;1725829;80;21526;-62
2022/08/09 05:21:54;;;;;;;2.58;1.30;;;;;;;22.16;87.79;100297.87;1700284;82;21514;-61
2022/08/09 05:24:23;;;;;;;3.15;1.12;;;;;;;22.26;87.90;100302.52;1696167;82;21522;-62
2022/08/09 05:26:51;;;;;;;0.93;0.93;;;;;;;22.37;87.62;100310.53;1736738;82;21497;-61
2022/08/09 05:29:20;;;;;;;;;;;;;;;22.44;85.93;100310.89;1747454;80;21468;-62
2022/08/09 05:31:47;;;;;;;2.83;0.80;;;;;;;22.47;85.41;100306.61;1736416;80;21806;-62
2022/08/09 05:34:14;;;;;;;1.83;1.03;;;;;;;22.52;85.29;100302.57;1696388;82;20997;-62
2022/08/09 05:36:42;;;;;;;2.27;1.02;;;;;;;22.55;84.89;100305.50;1698539;82;21533;-62
2022/08/09 05:39:09;;;;;;;0.95;0.95;;;;;;;22.62;83.41;100295.98;1698931;82;21553;-61
2022/08/09 05:41:35;;;;;;;1.67;0.80;;;;;;;22.72;82.14;100292.05;1698580;83;21447;-62
2022/08/09 05:44:03;;;;;;;0.88;0.88;;;;;;;22.87;80.13;100293.93;1732581;80;21818;-62
2022/08/09 05:46:30;;;;;;;1.40;1.00;;;;;;;22.92;79.23;100292.56;1742474;80;21618;-62
2022/08/09 05:48:57;;;;;;;;;;;;;;;22.95;78.61;100295.47;1738767;80;21507;-63
2022/08/09 05:51:24;;;;;;;1.37;0.90;;;;;;;22.97;77.77;100296.19;1740894;80;20421;-61
2022/08/09 05:53:51;;;;;;;1.17;1.05;;;;;;;22.96;77.39;100298.98;1746105;80;21573;-61
2022/08/09 05:56:17;;;;;;;1.37;0.93;;;;;;;22.96;76.26;100294.47;1740650;80;21806;-62
2022/08/09 05:58:44;;;;;;;2.67;0.80;;;;;;;23.03;75.72;100302.39;1743288;80;21471;-61
2022/08/09 06:01:11;;;;;;;0.72;0.65;;;;;;;23.09;74.79;100290.30;1744212;80;21570;-62
2022/08/09 06:03:37;;;;;;;0.68;0.68;;;;;;;23.20;74.63;100296.94;1738234;80;21585;-61
2022/08/09 06:06:04;;;;;;;0.90;0.90;;;;;;;23.31;74.37;100292.84;1714747;82;21571;-67
2022/08/09 06:08:31;;;;;;;;;;;;;;;23.42;73.49;100290.58;1702430;82;21525;-61
2022/08/09 06:10:58;;;;;;;0.80;0.80;;;;;;;23.46;71.87;100289.83;1678512;83;20542;-59
2022/08/09 06:13:25;;;;;;;3.50;1.10;;;;;;;23.52;71.07;100293.31;1680223;82;21601;-60
2022/08/09 06:15:52;;;;;;;2.63;1.10;;;;;;;23.66;70.23;100290.78;1731664;80;21461;-60
2022/08/09 06:18:20;;;;;;;2.47;1.12;;;;;;;23.79;69.83;100293.25;1695616;82;21903;-60
2022/08/09 06:20:46;;;;;;;1.02;0.85;;;;;;;23.90;70.81;100298.05;1736123;82;21839;-59
2022/08/09 06:23:13;;;;;;;2.52;0.70;;;;;;;24.02;71.04;100302.81;1733464;80;21625;-60
2022/08/09 06:25:39;;;;;;;4.00;0.80;;;;;;;24.13;69.12;100298.31;1747164;80;21580;-60
2022/08/09 06:28:06;;;;;;;1.25;0.80;;;;;;;24.18;67.83;100283.98;1691986;83;21455;-61
2022/08/09 06:30:33;;;;;;;4.00;1.25;;;;;;;24.28;68.21;100279.50;1699425;82;21648;-60
2022/08/09 06:32:59;;;;;;;1.30;0.90;;;;;;;24.35;66.34;100279.77;1683126;83;21821;-60
2022/08/09 06:35:26;;;;;;;2.33;0.72;;;;;;;24.42;66.91;100279.07;1679923;83;21514;-63
2022/08/09 06:37:53;;;;;;;2.30;1.10;;;;;;;24.52;66.99;100277.77;1681545;83;21492;-60
2022/08/09 06:40:20;;;;;;;1.67;0.75;;;;;;;24.56;65.61;100275.14;1701475;82;20995;-60
2022/08/09 06:42:46;;;;;;;2.00;0.87;;;;;;;24.63;64.94;100276.28;1688692;83;21482;-59
2022/08/09 06:45:13;;;;;;;1.10;1.00;;;;;;;24.67;64.33;100270.97;1688877;82;21889;-60
2022/08/09 06:47:39;;;;;;;1.05;0.90;;;;;;;24.77;63.81;100269.66;1693629;82;21113;-59
2022/08/09 06:50:07;;;;;;;1.35;0.80;;;;;;;24.87;62.65;100277.20;1695115;83;21431;-59
2022/08/09 06:52:34;;;;;;;1.90;0.80;;;;;;;25.10;60.89;100277.40;1693013;83;21589;-59
2022/08/09 06:55:00;;;;;;;1.27;0.90;;;;;;;25.17;59.88;100284.75;1692388;83;21561;-64
2022/08/09 06:57:27;;;;;;;0.95;0.62;;;;;;;25.25;59.69;100283.55;1698171;82;21938;-60
2022/08/09 06:59:54;;;;;;;4.22;1.15;;;;;;;25.31;58.60;100285.31;1695507;82;21440;-61
2022/08/09 07:02:21;;;;;;;2.90;1.02;;;;;;;25.34;57.98;100278.30;1688536;83;21606;-59
2022/08/09 07:04:47;;;;;;;7.60;1.72;;;;;;;25.34;55.93;100272.92;1689139;82;21537;-60
2022/08/09 07:07:14;;;;;;;0.90;0.90;;;;;;;25.36;55.64;100273.63;1694233;82;21768;-60
2022/08/09 07:09:43;;;;;;;4.50;1.00;;;;;;;25.37;55.96;100279.34;1693353;84;21855;-60
2022/08/09 07:12:11;;;;;;;1.20;0.80;;;;;;;25.41;56.37;100280.73;1686088;82;21921;-60
2022/08/09 07:14:38;;;;;;;5.87;0.95;;;;;;;25.44;55.53;100285.84;1695396;82;21465;-60
2022/08/09 07:17:05;;;;;;;2.55;0.70;;;;;;;25.42;53.56;100284.64;1701163;82;21469;-60
2022/08/09 07:19:32;;;;;;;1.42;0.70;;;;;;;25.43;52.84;100287.70;1694124;82;21517;-59
2022/08/09 07:21:58;;;;;;;2.60;0.88;;;;;;;25.42;52.45;100285.98;1688879;82;22012;-61
2022/08/09 07:24:26;;;;;;;3.10;0.80;;;;;;;25.45;52.32;100283.52;1682309;83;21013;-60
2022/08/09 07:26:53;;;;;;;1.52;0.85;;;;;;;25.54;52.14;100283.98;1727748;80;21487;-60
2022/08/09 07:29:20;;;;;;;2.50;0.90;;;;;;;25.59;51.95;100272.25;1729104;80;21563;-60
2022/08/09 07:31:46;;;;;;;2.40;0.80;;;;;;;25.70;52.19;100273.08;1734969;80;21128;-59
2022/08/09 07:34:13;;;;;;;2.17;0.68;;;;;;;25.79;52.57;100272.19;1734458;80;21844;-60
2022/08/09 07:36:40;;;;;;;2.70;0.78;;;;;;;25.85;50.96;100268.89;1730592;80;21850;-60
2022/08/09 07:39:07;;;;;;;1.83;0.87;;;;;;;25.89;50.25;100266.25;1732788;80;20948;-61
2022/08/09 07:41:33;;;;;;;1.10;0.80;;;;;;;25.96;50.22;100269.23;1726430;80;21807;-60
2022/08/09 07:44:00;;;;;;;1.50;0.70;;;;;;;26.03;49.09;100269.83;1736042;80;21884;-61
2022/08/09 07:46:28;;;;;;;3.30;0.80;;;;;;;26.06;50.17;100265.97;1736052;80;22199;-61
2022/08/09 07:48:55;;;;;;;2.62;1.10;;;;;;;26.13;50.39;100271.63;1728022;80;21487;-61
2022/08/09 07:51:22;;;;;;;3.35;1.55;;;;;;;26.18;50.07;100274.20;1725883;81;21097;-60
2022/08/09 07:53:50;;;;;;;1.37;1.10;;;;;;;26.22;50.37;100272.91;1742139;80;21618;-60
2022/08/09 07:56:16;;;;;;;4.33;1.22;;;;;;;26.20;49.35;100274.91;1730482;80;21412;-60
2022/08/09 07:58:43;;;;;;;1.60;0.90;;;;;;;26.20;49.71;100283.47;1720834;81;21926;-61
2022/08/09 08:01:10;;;;;;;0.62;0.62;;;;;;;26.21;49.73;100291.41;1725630;80;21038;-61
2022/08/09 08:03:37;;;;;;;7.12;1.00;;;;;;;26.14;49.89;100289.47;1738071;80;21450;-60
2022/08/09 08:06:05;;;;;;;2.15;1.00;;;;;;;26.10;49.02;100301.05;1724023;80;21551;-61
2022/08/09 08:08:33;;;;;;;1.30;0.70;;;;;;;26.08;49.84;100294.95;1727219;80;21556;-61
2022/08/09 08:10:59;;;;;;;4.77;0.77;;;;;;;26.12;50.05;100301.73;1726838;80;21722;-62
2022/08/09 08:13:26;;;;;;;3.27;1.00;;;;;;;26.12;50.49;100306.28;1728111;79;21452;-61
2022/08/09 08:15:53;;;;;;;2.10;0.70;;;;;;;26.25;50.98;100301.89;1723168;80;21543;-61
2022/08/09 08:18:19;;;;;;;4.33;0.90;;;;;;;26.41;50.53;100306.97;1682727;82;21574;-60
2022/08/09 08:20:46;;;;;;;4.80;0.98;;;;;;;26.39;50.19;100310.80;1724998;80;21524;-60
2022/08/09 08:23:12;;;;;;;2.10;0.90;;;;;;;26.38;50.38;100307.25;1727777;80;21813;-61
2022/08/09 08:25:39;;;;;;;1.95;1.05;;;;;;;26.48;49.83;100308.53;1734469;80;21538;-61
2022/08/09 08:28:05;;;;;;;2.47;0.90;;;;;;;26.49;49.61;100310.75;1731567;80;21516;-63
2022/08/09 08:30:32;;;;;;;4.87;1.07;;;;;;;26.49;50.16;100307.55;1691419;82;21502;-60
2022/08/09 08:32:59;;;;;;;3.30;1.05;;;;;;;26.52;50.17;100299.16;1702566;82;21567;-60
2022/08/09 08:35:26;;;;;;;3.65;0.90;;;;;;;26.55;50.41;100296.65;1727663;80;21536;-61
2022/08/09 08:37:52;;;;;;;4.77;1.20;;;;;;;26.52;49.86;100295.59;1733827;80;21521;-60
2022/08/09 08:40:19;;;;;;;1.05;0.93;;;;;;;26.52;49.08;100298.30;1737081;80;21491;-61
2022/08/09 08:42:45;;;;;;;6.75;1.05;;;;;;;26.55;49.23;100289.91;1728874;80;21516;-61
2022/08/09 08:45:12;;;;;;;3.55;0.82;;;;;;;26.60;48.95;100297.08;1728124;80;21492;-60
2022/08/09 08:50:08;;;;;;;4.45;0.85;;;;;;;26.12;50.16;100296.86;1780445;78;23217;-60
2022/08/09 08:52:34;;;;;;;0.70;0.65;;;;;;;26.56;47.09;100282.16;1740338;79;21636;-62
2022/08/09 08:55:01;;;;;;;1.22;0.82;;;;;;;26.56;46.08;100280.33;1744305;80;21817;-60
2022/08/09 08:57:28;;;;;;;1.62;0.50;;;;;;;26.58;45.32;100283.71;1749026;80;21507;-60
2022/08/09 08:59:54;;;;;;;3.08;0.80;;;;;;;26.49;45.23;100277.05;1738868;80;21554;-60
2022/08/09 09:02:27;;;;;;;1.05;0.80;;;;;;;26.41;45.78;100267.87;1737810;80;21526;-59
2022/08/09 09:04:58;;;;;;;2.40;0.88;;;;;;;26.33;46.43;100271.81;1752238;80;21574;-59
2022/08/09 09:07:26;;;;;;;3.22;0.70;;;;;;;26.22;47.68;100271.55;1755466;80;21790;-60
2022/08/09 09:09:54;;;;;;;0.78;0.60;;;;;;;26.18;46.97;100274.20;1730396;80;21713;-60
2022/08/09 09:12:25;;;;;;;1.05;0.90;;;;;;;26.07;46.35;100276.24;1704959;83;21465;-60
2022/08/09 09:14:52;;;;;;;3.05;0.95;;;;;;;26.03;47.64;100280.60;1708030;81;21576;-60
2022/08/09 09:17:19;;;;;;;1.05;0.78;;;;;;;26.09;47.99;100277.81;1721203;81;21596;-60
2022/08/09 09:19:45;;;;;;;1.37;0.70;;;;;;;26.11;47.78;100267.72;1709647;81;21597;-60
2022/08/09 09:22:14;;;;;;;4.75;1.05;;;;;;;26.05;47.97;100278.24;1696968;83;21527;-60
2022/08/09 09:24:50;;;;;;;1.45;0.88;;;;;;;26.02;49.11;100273.50;1693484;83;21024;-59
2022/08/09 09:27:26;;;;;;;1.25;0.70;;;;;;;26.03;48.10;100277.04;1691290;83;21606;-60
2022/08/09 09:29:53;;;;;;;0.72;0.72;;;;;;;26.07;47.11;100285.20;1695978;82;21468;-59
2022/08/09 09:32:26;;;;;;;1.02;0.62;;;;;;;26.14;47.13;100285.42;1696737;83;21963;-61
2022/08/09 09:35:10;;;;;;;2.12;1.05;;;;;;;26.14;46.55;100274.14;1684506;83;21507;-60
2022/08/09 09:37:38;;;;;;;1.65;0.75;;;;;;;26.13;46.42;100266.23;1685507;83;21473;-60
2022/08/09 09:40:06;;;;;;;1.47;0.70;;;;;;;26.06;46.50;100272.71;1695753;83;21551;-59
2022/08/09 09:42:35;;;;;;;3.15;0.80;;;;;;;26.08;46.63;100277.44;1690606;83;21547;-59
2022/08/09 09:45:05;;;;;;;0.93;0.78;;;;;;;26.10;46.43;100278.14;1692285;83;25487;-60
2022/08/09 09:47:33;;;;;;;0.90;0.88;;;;;;;26.15;46.83;100272.31;1704078;82;21650;-60
2022/08/09 09:50:00;;;;;;;1.80;0.88;;;;;;;26.15;47.96;100273.16;1680041;83;21552;-60
2022/08/09 09:52:27;;;;;;;3.72;0.90;;;;;;;26.16;47.92;100272.17;1694578;82;22022;-60
2022/08/09 09:55:04;;;;;;;1.50;1.07;;;;;;;26.20;47.35;100271.34;1695511;82;21539;-60
2022/08/09 09:57:32;;;;;;;1.45;0.80;;;;;;;26.21;47.92;100277.09;1687352;83;22315;-61
2022/08/09 10:00:03;;;;;;;4.37;0.95;;;;;;;26.22;48.07;100282.84;1693877;82;21634;-64
2022/08/09 10:02:45;;;;;;;3.37;0.75;;;;;;;26.26;47.29;100280.19;1686694;83;21560;-61
2022/08/09 10:05:12;;;;;;;4.37;1.65;;;;;;;26.26;47.28;100279.31;1692968;82;21547;-60
2022/08/09 10:07:39;;;;;;;5.95;0.70;;;;;;;26.25;47.40;100274.94;1690562;84;21453;-61
2022/08/09 10:10:07;;;;;;;1.92;1.00;;;;;;;26.28;47.22;100276.00;1681959;83;21837;-59
2022/08/09 10:12:38;;;;;;;;;;;;;;;26.26;47.08;100275.27;1694126;82;21528;-61
2022/08/09 10:15:14;;;;;;;1.07;0.98;;;;;;;26.20;47.29;100266.82;1695865;82;20166;-60
2022/08/09 10:17:44;;;;;;;1.82;0.90;;;;;;;26.15;48.19;100270.97;1686267;83;21476;-61
2022/08/09 10:20:26;;;;;;;1.37;0.82;;;;;;;26.14;49.24;100270.09;1685219;82;21634;-61
2022/08/09 10:22:54;;;;;;;2.05;0.82;;;;;;;26.21;48.62;100269.00;1691185;82;22142;-61
2022/08/09 10:25:22;;;;;;;6.35;1.22;;;;;;;26.18;49.14;100264.78;1697253;83;21550;-60
2022/08/09 10:27:49;;;;;;;3.33;1.00;;;;;;;26.18;49.28;100263.91;1686549;82;21570;-60
2022/08/09 10:30:16;;;;;;;2.10;0.90;;;;;;;26.12;49.70;100266.70;1689712;82;21444;-60
2022/08/09 10:32:44;;;;;;;1.25;0.80;;;;;;;26.09;49.65;100261.64;1694172;82;21450;-61
2022/08/09 10:35:10;;;;;;;;;;;;;;;26.03;49.47;100260.87;1696810;82;21793;-61
2022/08/09 10:37:37;;;;;;;1.40;0.90;;;;;;;26.02;50.10;100260.03;1696878;82;20429;-59
2022/08/09 10:40:08;;;;;;;1.30;1.20;;;;;;;25.96;50.67;100263.84;1691521;82;21541;-59
2022/08/09 10:42:35;;;;;;;1.72;0.82;;;;;;;25.96;50.80;100261.99;1686068;82;21543;-59
2022/08/09 10:45:06;;;;;;;2.17;1.02;;;;;;;25.98;50.41;100257.81;1691748;82;21612;-60
2022/08/09 10:47:44;;;;;;;4.15;1.15;;;;;;;25.99;50.83;100267.56;1686156;83;21816;-60
2022/08/09 10:53:59;;;;;;;4.25;0.82;;;;;;;26.07;51.17;100253.34;1650060;84;21013;-60
2022/08/09 10:56:35;;;;;;;1.50;0.68;;;;;;;26.07;50.36;100254.69;1654388;84;21056;-61
2022/08/09 10:59:27;;;;;;;2.10;0.98;;;;;;;26.02;51.42;100254.65;1665298;83;21054;-58
2022/08/09 11:01:55;;;;;;;2.02;0.70;;;;;;;25.97;50.98;100261.48;1668176;83;21812;-59
2022/08/09 11:04:25;;;;;;;1.10;0.82;;;;;;;25.86;49.80;100258.45;1668883;83;21577;-59
2022/08/09 11:07:03;;;;;;;2.15;0.80;;;;;;;25.82;50.05;100248.98;1659752;83;21512;-59
2022/08/09 11:09:48;;;;;;;1.17;0.82;;;;;;;25.83;50.56;100248.00;1681980;82;21562;-60
2022/08/09 11:12:27;;;;;;;1.55;0.85;;;;;;;25.81;51.37;100247.30;1664871;82;21539;-59
2022/08/09 11:14:57;;;;;;;4.00;0.82;;;;;;;25.79;50.22;100249.30;1677274;83;21959;-59
2022/08/09 11:17:33;;;;;;;2.87;0.72;;;;;;;25.79;49.82;100247.45;1645954;85;21047;-59
2022/08/09 11:20:08;;;;;;;2.62;0.90;;;;;;;25.69;48.84;100243.09;1655165;83;21565;-59
2022/08/09 11:23:03;;;;;;;1.67;0.75;;;;;;;25.56;48.73;100242.95;1645109;84;21491;-59
2022/08/09 11:25:35;;;;;;;1.45;0.80;;;;;;;25.56;49.31;100236.22;1581654;90;21700;-60
2022/08/09 11:28:24;;;;;;;1.85;0.85;;;;;;;25.56;49.20;100237.57;1556509;90;21874;-60
2022/08/09 11:30:51;;;;;;;4.80;0.80;;;;;;;25.55;48.91;100239.90;1538850;90;21597;-59
2022/08/09 11:33:26;;;;;;;1.00;0.70;;;;;;;25.58;48.72;100242.31;1581991;88;21610;-60
2022/08/09 11:36:00;;;;;;;5.00;0.90;;;;;;;25.57;48.90;100235.21;1582952;88;21815;-60
2022/08/09 11:38:29;;;;;;;2.22;1.22;;;;;;;25.55;50.21;100237.71;1585451;88;21608;-61
2022/08/09 11:40:58;;;;;;;4.85;0.88;;;;;;;25.60;49.74;100234.09;1576709;89;21836;-58
2022/08/09 11:43:30;;;;;;;1.75;0.60;;;;;;;25.62;49.56;100233.44;1582838;88;21573;-59